Terminal Aerodrome Forecast
Issued by NWS Houston/Galveston, TX

Home | Current Version | Previous Version | Text Only | Print | Product List | Glossary On
Versions: 1 2 3 4 5 6 7 8 9 10 11 12 13 14 15 16 17 18 19 20 21 22 23 24 25 26 27 28 29 30 31 32 33 34 35 36 37 38 39 40 41 42 43 44
000
FTUS44 KHGX 011731
TAFGLS
TAF
KGLS 011731Z 0118/0218 19011KT P6SM BKN035 OVC060
     FM020000 28010G20KT P6SM BKN035
     FM020200 34020G30KT P6SM VCSH BKN025 BKN050
     FM020400 35015G25KT P6SM BKN250
     FM021600 01015KT P6SM SKC=

USA.gov is the U.S. government's official web portal to all federal, state and local government web resources and services.